Flight Track Log - Related Links

Times and Time Zones

All times are in EDT time to prevent confusion due to time zone crossing. See the LAK145 flight status page for this flight to view local times or setup timezone preferences in your user account.

Time Position Orientation Groundspeed Altitude Reporting Facility
EDT Latitude Longitude Course Direction KTS MPH feet Rate Location/Type
Tue 01:31:52 AM 42.9500 -87.9000 216° Southwest 116 133 1,600  Level KMKE
Tue 01:32:28 AM 42.9333 -87.9167 216° Southwest 133 153 3,500 3,342 Climbing KMKE
Tue 01:33:11 AM 42.9411 -87.9731 281° West 189 217 6,000 3,437 Climbing Chicago Center
Tue 01:34:11 AM 42.9408 -88.0581 270° West 217 250 9,400 2,975 Climbing Chicago Center
Tue 01:35:12 AM 42.9356 -88.1536 266° West 247 284 12,000 2,777 Climbing Chicago Center
Tue 01:36:12 AM 42.9675 -88.2494 295° West 272 313 15,000 2,800 Climbing Chicago Center
Tue 01:37:12 AM 43.0061 -88.3433 299° West 280 322 17,600 2,700 Climbing Chicago Center
Tue 01:38:12 AM 43.0450 -88.4408 299° West 289 333 20,400 2,529 Climbing Chicago Center
Tue 01:39:13 AM 43.0861 -88.5392 300° West 292 336 22,700 2,281 Climbing Chicago Center
Tue 01:40:13 AM 43.1286 -88.6436 299° West 309 356 25,000 1,650 Climbing Chicago Center
Tue 01:41:13 AM 43.1708 -88.7478 299° West 310 357 26,000 500 Climbing Chicago Center
Tue 01:42:13 AM 43.2194 -88.8664 299° West 347 399 26,000  Level Chicago Center
Tue 01:43:14 AM 43.2661 -88.9836 299° West 351 404 26,000  Level Chicago Center
Tue 01:44:14 AM 43.3111 -89.0958 299° West 339 390 26,000  Level Chicago Center
Tue 01:45:14 AM 43.3544 -89.2061 298° West 329 379 26,000  Level Chicago Center
Tue 01:46:14 AM 43.3986 -89.3172 299° West 334 384 26,000  Level Chicago Center
Tue 01:47:14 AM 43.4431 -89.4278 299° West 330 380 26,000  Level Chicago Center
Tue 01:48:15 AM 43.4858 -89.5394 298° West 331 381 26,000  Level Chicago Center
Tue 01:49:15 AM 43.5311 -89.6519 299° West 334 384 26,000  Level Chicago Center
Tue 01:50:15 AM 43.5747 -89.7650 298° West 335 386 26,000  Level Chicago Center
Tue 01:51:15 AM 43.6181 -89.8769 298° West 332 382 26,000  Level Chicago Center
Tue 01:52:16 AM 43.6639 -89.9881 300° West 333 383 26,000  Level Chicago Center
Tue 01:53:16 AM 43.7044 -90.1011 296° West 331 381 26,000  Level Chicago Center
Tue 01:54:16 AM 43.7503 -90.2125 300° West 332 382 26,000  Level Chicago Center
Tue 01:55:16 AM 43.7839 -90.3081 296° West 332 382 26,000  Level Chicago Center
Tue 01:56:16 AM 43.8289 -90.4206 299° West 336 387 26,000  Level Chicago Center
Tue 01:57:17 AM 43.8711 -90.5347 297° West 337 388 26,000  Level Chicago Center
Tue 01:58:17 AM 43.9239 -90.6717 298° West 338 389 26,000  Level Chicago Center
Tue 01:59:17 AM 43.9689 -90.7872 298° West 341 392 26,000  Level Chicago Center
Tue 02:00:17 AM 44.0139 -90.9106 297° West 350 403 26,000  Level Chicago Center
Tue 02:01:18 AM 44.0581 -91.0294 297° West 353 406 26,000 -496 Level Chicago Center
Tue 02:02:18 AM 44.1000 -91.1478 296° West 350 403 25,000 -1,400 Descending Chicago Center
Tue 02:03:18 AM 44.1461 -91.2664 298° West 350 403 23,200 -1,750 Descending Chicago Center
Tue 02:04:18 AM 44.1881 -91.3858 296° West 349 402 21,500 -1,700 Descending Chicago Center
Tue 02:05:18 AM 44.2314 -91.4931 299° West 341 392 19,800 -1,785 Descending Chicago Center
Tue 02:06:19 AM 44.2731 -91.6053 297° West 332 382 17,900 -1,835 Descending Chicago Center
Tue 02:07:19 AM 44.3147 -91.7211 297° West 336 387 16,100 -1,750 Descending Chicago Center
Tue 02:08:19 AM 44.3569 -91.8328 298° West 331 381 14,400 -1,700 Descending Chicago Center
Tue 02:09:19 AM 44.3944 -91.9458 295° West 326 375 12,700 -1,796 Descending Chicago Center
Tue 02:10:46 AM 44.4533 -92.1089 297° West 301 346 10,000 -1,662 Descending Minneapolis Center
Tue 02:11:47 AM 44.4875 -92.2011 297° West 277 319 8,600 -1,587 Descending Minneapolis Center
Tue 02:12:47 AM 44.5044 -92.2931 285° West 251 289 6,800 -1,600 Descending Minneapolis Center
Tue 02:13:47 AM 44.4983 -92.3803 264° West 228 262 5,400 -1,250 Descending Minneapolis Center
Tue 02:14:47 AM 44.4944 -92.4600 266° West 212 244 4,300 -694 Descending Minneapolis Center
Tue 02:15:48 AM 44.5003 -92.5331 276° West 191 220 4,000 -149 Descending Minneapolis Center
Tue 02:16:48 AM 44.5036 -92.5997 274° West 177 204 4,000  Level Minneapolis Center
Tue 02:17:48 AM 44.5061 -92.6656 273° West 174 200 4,000 -50 Level Minneapolis Center
Tue 02:18:48 AM 44.5156 -92.7275 282° West 174 200 3,900 -446 Descending Minneapolis Center
Tue 02:19:49 AM 44.5669 -92.7356 354° North 185 213 3,100 -446 Descending Minneapolis Center
Tue 02:20:49 AM 44.6028 -92.6994 36° Northeast 185 213 3,000 -100 Descending Minneapolis Center

Login

Don't have an account? Register now (free) for customized features, flight alerts, and more!